Time;durP1;ratioP1;P1;durP2;ratioP2;P2;SDS_P1;SDS_P2;PMS_P1;PMS_P2;Temp;Humidity;BMP_temperature;BMP_pressure;BME280_temperature;BME280_humidity;BME280_pressure;Samples;Min_cycle;Max_cycle;Signal;HPM_P1;HPM_P2
2023/06/23 00:01:20;;;;;;;7.60;6.50;;;;;;;21.58;48.76;100233.86;110270;1265;23026;-83
2023/06/23 00:04:01;;;;;;;8.40;5.60;;;;;;;21.59;48.77;100230.62;110353;1263;23583;-82
2023/06/23 00:06:36;;;;;;;6.60;6.00;;;;;;;21.58;48.85;100220.75;109582;1267;23743;-81
2023/06/23 00:09:15;;;;;;;8.20;6.30;;;;;;;21.55;48.92;100219.76;109843;1267;24329;-82
2023/06/23 00:11:46;;;;;;;8.10;6.20;;;;;;;21.55;48.85;100220.15;109776;1267;22942;-81
2023/06/23 00:14:24;;;;;;;8.00;6.10;;;;;;;21.57;48.83;100218.38;109827;1267;23624;-82
2023/06/23 00:16:53;;;;;;;6.60;5.50;;;;;;;21.58;48.73;100213.01;110216;1265;23608;-81
2023/06/23 00:19:25;;;;;;;9.60;6.30;;;;;;;21.57;48.63;100207.55;110219;1265;23148;-82
2023/06/23 00:21:56;;;;;;;9.20;6.90;;;;;;;21.56;48.63;100199.36;109384;1272;21982;-81
2023/06/23 00:24:30;;;;;;;7.00;5.90;;;;;;;21.55;48.59;100193.23;109395;1267;24494;-81
2023/06/23 00:27:04;;;;;;;11.90;6.70;;;;;;;21.54;48.55;100198.09;110169;1265;23728;-81
2023/06/23 00:29:45;;;;;;;8.80;5.80;;;;;;;21.53;48.63;100200.83;110052;1265;23699;-79
2023/06/23 00:32:30;;;;;;;;;;;;;;;;;;;;;
2023/06/23 00:35:08;;;;;;;6.60;5.90;;;;;;;21.53;48.66;100198.92;110132;1266;23598;-80
2023/06/23 00:37:38;;;;;;;9.70;5.60;;;;;;;21.50;48.70;100191.70;110004;1266;23615;-81
2023/06/23 00:40:10;;;;;;;9.40;7.20;;;;;;;21.47;48.70;100191.79;110312;1261;23615;-81
2023/06/23 00:42:52;;;;;;;8.90;6.40;;;;;;;21.43;48.81;100192.09;110729;1260;21954;-82
2023/06/23 00:45:25;;;;;;;7.80;5.50;;;;;;;21.39;48.77;100189.60;110671;1261;21981;-83
2023/06/23 00:47:56;;;;;;;9.00;6.40;;;;;;;21.36;48.86;100186.17;110731;1260;21974;-81
2023/06/23 00:50:26;;;;;;;8.70;5.60;;;;;;;21.34;48.99;100184.02;110737;1260;22442;-84
2023/06/23 00:52:57;;;;;;;7.80;6.10;;;;;;;21.33;48.99;100185.17;110855;1255;23034;-83
2023/06/23 00:55:28;;;;;;;8.10;6.40;;;;;;;21.32;48.95;100183.64;111273;1256;22020;-82
2023/06/23 00:58:04;;;;;;;9.10;6.20;;;;;;;21.31;49.02;100175.74;111063;1256;23845;-81
2023/06/23 01:00:56;;;;;;;9.10;6.20;;;;;;;21.31;49.00;100167.47;111049;1253;22729;-81
2023/06/23 01:03:28;;;;;;;8.50;6.70;;;;;;;21.24;48.99;100152.27;111143;1255;21938;-83
2023/06/23 01:06:25;;;;;;;10.10;6.80;;;;;;;21.25;48.98;100147.46;111332;1255;23135;-81
2023/06/23 01:09:42;;;;;;;11.50;6.00;;;;;;;21.31;48.86;100152.46;111247;1256;21973;-80
2023/06/23 01:12:43;;;;;;;9.40;6.60;;;;;;;21.28;48.88;100144.15;111201;1256;21975;-81
2023/06/23 01:15:20;;;;;;;7.10;6.20;;;;;;;21.28;48.92;100141.72;111093;1255;23015;-82
2023/06/23 01:18:32;;;;;;;10.50;6.70;;;;;;;21.28;48.81;100137.30;111140;1256;23784;-80
2023/06/23 01:21:16;;;;;;;7.90;6.20;;;;;;;21.24;48.87;100131.60;111269;1255;23746;-82
2023/06/23 01:24:03;;;;;;;7.20;6.50;;;;;;;21.22;48.93;100128.40;110750;1259;22726;-83
2023/06/23 01:27:11;;;;;;;9.70;6.70;;;;;;;21.17;49.03;100126.75;110896;1248;23040;-81
2023/06/23 01:29:50;;;;;;;9.20;6.40;;;;;;;21.11;49.14;100123.14;111050;1259;23789;-79
2023/06/23 01:32:50;;;;;;;7.00;6.30;;;;;;;21.09;49.16;100121.55;110955;1259;23013;-81
2023/06/23 01:35:30;;;;;;;7.40;6.30;;;;;;;21.07;49.09;100118.23;111028;1259;21977;-80
2023/06/23 01:38:23;;;;;;;8.90;7.00;;;;;;;21.06;49.09;100113.87;110763;1259;23629;-80
2023/06/23 01:40:59;;;;;;;9.50;7.20;;;;;;;21.06;49.04;100109.26;110844;1259;21966;-80
2023/06/23 01:43:35;;;;;;;7.80;6.10;;;;;;;21.06;49.13;100104.45;110722;1259;21948;-80
2023/06/23 01:46:25;;;;;;;8.70;6.60;;;;;;;21.07;49.02;100112.04;110874;1259;21966;-80
2023/06/23 01:49:02;;;;;;;7.00;6.30;;;;;;;21.05;49.09;100117.67;111039;1259;22051;-79
2023/06/23 01:51:48;;;;;;;7.80;6.00;;;;;;;21.05;49.06;100122.45;110961;1258;21958;-80
2023/06/23 01:54:29;;;;;;;7.00;5.80;;;;;;;21.07;49.04;100134.68;111001;1256;21963;-80
2023/06/23 01:57:00;;;;;;;7.90;7.10;;;;;;;21.08;49.11;100148.90;110901;1260;21963;-80
2023/06/23 01:59:39;;;;;;;9.10;7.60;;;;;;;21.08;49.22;100154.02;110881;1260;21974;-80
2023/06/23 02:02:23;;;;;;;8.20;7.00;;;;;;;21.06;49.21;100135.58;110485;1264;21960;-80
2023/06/23 02:04:57;;;;;;;7.50;6.10;;;;;;;21.02;49.36;100112.23;110518;1264;23823;-80
2023/06/23 02:07:42;;;;;;;7.40;6.70;;;;;;;20.97;49.61;100097.80;110436;1264;23625;-79
2023/06/23 02:10:12;;;;;;;7.40;6.00;;;;;;;20.95;49.79;100097.14;110355;1264;21981;-80
2023/06/23 02:12:46;;;;;;;8.10;6.70;;;;;;;20.91;49.81;100119.91;110584;1260;21981;-80
2023/06/23 02:15:21;;;;;;;8.10;6.80;;;;;;;20.76;49.91;100118.36;110645;1262;21974;-80
2023/06/23 02:17:53;;;;;;;7.90;7.00;;;;;;;20.81;50.05;100134.88;110684;1262;22041;-81
2023/06/23 02:20:24;;;;;;;10.50;8.10;;;;;;;20.87;50.11;100144.66;110965;1256;22157;-80
2023/06/23 02:22:57;;;;;;;12.20;7.40;;;;;;;20.88;50.17;100142.26;111190;1256;22976;-80
2023/06/23 02:25:28;;;;;;;10.20;7.00;;;;;;;20.88;50.08;100137.30;111095;1255;23131;-81
2023/06/23 02:27:58;;;;;;;10.00;7.00;;;;;;;20.88;50.06;100130.41;111175;1255;23024;-83
2023/06/23 02:30:34;;;;;;;8.80;6.60;;;;;;;20.86;50.04;100130.03;111203;1255;23018;-81
2023/06/23 02:33:13;;;;;;;8.40;7.10;;;;;;;20.84;50.19;100134.84;111139;1249;23024;-80
2023/06/23 02:35:42;;;;;;;10.00;7.80;;;;;;;20.81;50.24;100147.76;111195;1255;22013;-82
2023/06/23 02:38:21;;;;;;;10.50;6.70;;;;;;;20.79;50.34;100177.16;111120;1256;23586;-81
2023/06/23 02:40:55;;;;;;;8.20;6.50;;;;;;;20.76;50.47;100200.60;111018;1255;21958;-80
2023/06/23 02:43:51;;;;;;;8.80;6.50;;;;;;;20.76;50.47;100201.15;111267;1255;21989;-81
2023/06/23 02:46:33;;;;;;;8.00;6.80;;;;;;;20.72;50.53;100201.82;110949;1260;23708;-82
2023/06/23 02:49:13;;;;;;;9.50;7.30;;;;;;;20.65;50.67;100190.34;111129;1260;23480;-82
2023/06/23 02:51:47;;;;;;;8.00;7.10;;;;;;;20.73;50.74;100193.23;111218;1260;23714;-80
2023/06/23 02:54:31;;;;;;;16.30;14.50;;;;;;;20.76;50.80;100180.25;110963;1260;22938;-81
2023/06/23 02:57:05;;;;;;;18.50;11.90;;;;;;;20.79;50.83;100156.96;110871;1260;22112;-81
2023/06/23 02:59:41;;;;;;;8.10;7.10;;;;;;;20.81;50.71;100132.42;111002;1259;23700;-82
2023/06/23 03:02:29;;;;;;;11.70;10.20;;;;;;;20.80;50.65;100116.40;110940;1260;23693;-82
2023/06/23 03:04:59;;;;;;;13.90;10.60;;;;;;;20.81;50.74;100098.48;111290;1256;22734;-83
2023/06/23 03:07:38;;;;;;;11.40;8.10;;;;;;;20.82;50.74;100093.46;111170;1255;22804;-82
2023/06/23 03:10:18;;;;;;;41.10;37.00;;;;;;;20.79;50.57;100095.67;111256;1256;21952;-81
2023/06/23 03:12:49;;;;;;;9.70;8.70;;;;;;;20.76;50.71;100102.41;111189;1256;22627;-83
2023/06/23 03:15:21;;;;;;;8.90;8.10;;;;;;;20.76;50.57;100115.19;110928;1260;22166;-82
2023/06/23 03:18:09;;;;;;;10.50;8.20;;;;;;;20.78;50.64;100124.55;110289;1266;22136;-83
2023/06/23 03:20:49;;;;;;;9.30;8.30;;;;;;;20.81;50.71;100128.56;110435;1266;22152;-82
2023/06/23 03:23:23;;;;;;;8.70;7.80;;;;;;;20.83;50.62;100134.73;110035;1266;21978;-80
2023/06/23 03:25:56;;;;;;;9.40;7.50;;;;;;;20.84;50.54;100151.41;110273;1266;23703;-82
2023/06/23 03:28:31;;;;;;;9.40;7.60;;;;;;;20.86;50.58;100156.92;110340;1266;23334;-81
2023/06/23 03:31:12;;;;;;;8.70;7.40;;;;;;;20.87;50.59;100144.84;110357;1266;23791;-82
2023/06/23 03:33:47;;;;;;;12.00;7.30;;;;;;;20.88;50.55;100132.56;110485;1261;21966;-82
2023/06/23 03:36:28;;;;;;;9.10;6.80;;;;;;;20.90;50.49;100142.11;111026;1255;23693;-83
2023/06/23 03:39:09;;;;;;;10.90;7.70;;;;;;;20.92;50.57;100177.69;111358;1255;22729;-84
2023/06/23 03:41:49;;;;;;;7.10;6.40;;;;;;;20.89;50.70;100213.85;111154;1255;22028;-84
2023/06/23 03:44:53;;;;;;;9.30;7.00;;;;;;;20.87;50.90;100187.67;111299;1256;22734;-81
2023/06/23 03:47:44;;;;;;;8.50;7.40;;;;;;;20.88;50.94;100173.94;111198;1255;21963;-82
2023/06/23 03:50:31;;;;;;;8.20;6.80;;;;;;;20.89;50.97;100212.77;111182;1255;23036;-83
2023/06/23 03:53:07;;;;;;;10.30;7.40;;;;;;;20.86;50.96;100156.73;110846;1259;21979;-80
2023/06/23 03:55:42;;;;;;;8.00;6.90;;;;;;;20.83;51.43;100101.87;110997;1259;21973;-83
2023/06/23 03:58:28;;;;;;;13.60;7.10;;;;;;;20.75;51.74;100062.02;110236;1264;21981;-81
2023/06/23 04:00:59;;;;;;;9.80;7.50;;;;;;;20.63;52.49;100020.41;110321;1264;21978;-81
2023/06/23 04:03:35;;;;;;;9.70;7.30;;;;;;;20.46;53.24;99985.77;110480;1264;22001;-79
2023/06/23 04:06:11;;;;;;;9.20;6.90;;;;;;;20.19;54.53;99967.08;110225;1263;21981;-79
2023/06/23 04:08:55;;;;;;;9.00;7.40;;;;;;;19.84;55.83;99965.02;110572;1263;22834;-82
2023/06/23 04:11:32;;;;;;;11.70;7.30;;;;;;;19.70;56.73;99995.44;110705;1260;21970;-83
2023/06/23 04:14:02;;;;;;;8.90;7.80;;;;;;;19.64;57.99;100046.90;110961;1260;21963;-82
2023/06/23 04:16:42;;;;;;;11.90;8.00;;;;;;;19.60;58.66;100089.58;110625;1248;21951;-82
2023/06/23 04:19:22;;;;;;;10.00;7.70;;;;;;;19.57;59.21;100103.21;110883;1260;21961;-82
2023/06/23 04:21:52;;;;;;;9.70;8.80;;;;;;;19.58;59.82;100079.34;110278;1266;21981;-81
2023/06/23 04:24:29;;;;;;;11.60;8.30;;;;;;;19.61;60.53;100059.50;109645;1270;21974;-83
2023/06/23 04:27:03;;;;;;;10.90;8.90;;;;;;;19.63;61.04;100037.14;109562;1270;22252;-79
2023/06/23 04:29:34;;;;;;;9.60;8.50;;;;;;;19.63;61.34;100027.59;109579;1269;24487;-81
2023/06/23 04:32:04;;;;;;;9.50;8.50;;;;;;;19.60;61.53;100023.98;109551;1270;23693;-81
2023/06/23 04:34:40;;;;;;;13.80;8.80;;;;;;;19.59;62.12;100028.81;109961;1263;23078;-80
2023/06/23 04:37:29;;;;;;;10.90;8.30;;;;;;;19.57;62.50;100027.19;110573;1263;23711;-80
2023/06/23 04:40:29;;;;;;;14.60;9.80;;;;;;;19.53;62.77;100005.10;110680;1250;21960;-80
2023/06/23 04:43:23;;;;;;;10.80;7.90;;;;;;;19.49;63.01;100002.94;110845;1255;22040;-81
2023/06/23 04:46:36;;;;;;;11.50;8.60;;;;;;;19.45;63.37;100000.06;110734;1259;23692;-79
2023/06/23 04:49:12;;;;;;;14.10;9.50;;;;;;;19.41;63.62;99995.42;110195;1266;21975;-80
2023/06/23 04:51:56;;;;;;;17.70;9.40;;;;;;;19.38;63.67;100006.63;109803;1266;22015;-79
2023/06/23 04:54:44;;;;;;;9.00;8.30;;;;;;;19.33;63.83;100000.17;110245;1266;23583;-79
2023/06/23 04:57:29;;;;;;;10.90;8.60;;;;;;;19.27;63.84;99987.04;109477;1272;24309;-80
2023/06/23 05:00:07;;;;;;;;;;;;;;;19.23;64.18;99988.06;109546;1271;21961;-84
2023/06/23 05:02:52;;;;;;;13.60;8.60;;;;;;;19.17;64.84;99988.71;109583;1271;22028;-82
2023/06/23 05:05:57;;;;;;;12.60;9.30;;;;;;;19.23;64.99;99972.72;110203;1264;21977;-81
2023/06/23 05:14:39;;;;;;;15.70;8.40;;;;;;;19.22;65.58;99900.11;109347;1264;21952;-78
2023/06/23 05:17:26;;;;;;;18.90;9.80;;;;;;;19.22;65.59;99901.73;109308;1272;21984;-80
2023/06/23 05:20:18;;;;;;;12.40;8.30;;;;;;;19.26;65.70;99907.05;109433;1272;21991;-78
2023/06/23 05:23:02;;;;;;;10.00;8.30;;;;;;;19.33;65.67;99907.71;109334;1274;23628;-81
2023/06/23 05:25:36;;;;;;;14.80;7.70;;;;;;;19.39;65.30;99900.02;109370;1271;21989;-82
2023/06/23 05:28:19;;;;;;;15.30;8.10;;;;;;;19.42;64.97;99897.80;109664;1269;24339;-79
2023/06/23 05:31:05;;;;;;;12.40;9.20;;;;;;;19.46;65.16;99912.17;109168;1275;22978;-78
2023/06/23 05:34:10;;;;;;;17.10;8.10;;;;;;;19.51;65.14;99937.80;109102;1275;23616;-79
2023/06/23 05:36:49;;;;;;;18.20;8.00;;;;;;;19.50;65.05;99961.55;109537;1272;23688;-80
2023/06/23 05:39:40;;;;;;;14.50;11.20;;;;;;;19.47;65.26;99979.44;109822;1269;21964;-83
2023/06/23 05:42:38;;;;;;;8.70;7.20;;;;;;;19.52;65.42;99991.77;109501;1272;23036;-81
2023/06/23 05:46:29;;;;;;;16.40;8.10;;;;;;;19.58;65.57;99999.25;109916;1267;23599;-79
2023/06/23 05:49:21;;;;;;;16.90;8.70;;;;;;;19.64;65.72;99993.95;110048;1265;23593;-79
2023/06/23 05:52:38;;;;;;;14.20;8.20;;;;;;;19.68;65.80;100006.17;110178;1265;23692;-80
2023/06/23 05:55:37;;;;;;;15.00;8.70;;;;;;;19.67;66.01;100029.71;110589;1261;22128;-80
2023/06/23 05:58:46;;;;;;;14.60;8.80;;;;;;;19.74;66.29;100032.59;110595;1261;22952;-76
2023/06/23 06:01:38;;;;;;;14.10;9.50;;;;;;;19.85;66.53;100020.73;110160;1267;23870;-74
2023/06/23 06:04:22;;;;;;;12.60;9.30;;;;;;;19.90;66.54;100006.69;110048;1267;23054;-76
2023/06/23 06:06:56;;;;;;;14.60;8.90;;;;;;;19.94;66.64;99999.02;110042;1267;22761;-78
2023/06/23 06:09:33;;;;;;;12.20;8.40;;;;;;;19.98;66.91;100000.94;110062;1267;21959;-76
2023/06/23 06:12:02;;;;;;;13.30;9.30;;;;;;;20.04;67.16;100000.60;109916;1267;23035;-77
2023/06/23 06:14:33;;;;;;;12.90;8.70;;;;;;;20.10;67.36;99988.11;110301;1264;21997;-75
2023/06/23 06:17:06;;;;;;;14.80;9.80;;;;;;;20.15;67.55;99976.77;110229;1264;21980;-75
2023/06/23 06:19:35;;;;;;;;;;;;;;;20.24;67.75;99968.05;110487;1256;23039;-75
2023/06/23 06:22:13;;;;;;;11.20;9.10;;;;;;;20.24;68.11;99973.48;110992;1255;21947;-76
2023/06/23 06:24:47;;;;;;;13.50;9.00;;;;;;;20.31;68.22;99985.63;111013;1253;23061;-76
2023/06/23 06:27:21;;;;;;;11.00;8.70;;;;;;;20.38;68.16;99994.94;110812;1256;23071;-76
2023/06/23 06:29:55;;;;;;;10.60;9.70;;;;;;;20.44;68.20;100000.39;110400;1260;21967;-76
2023/06/23 06:32:25;;;;;;;14.30;12.80;;;;;;;20.56;68.50;100007.05;110701;1260;21969;-76
2023/06/23 06:34:56;;;;;;;15.10;9.90;;;;;;;20.66;68.49;100011.66;110293;1261;21972;-79
2023/06/23 06:37:34;;;;;;;12.60;10.60;;;;;;;20.77;68.65;100015.52;110455;1261;22014;-77
2023/06/23 06:40:20;;;;;;;12.90;10.70;;;;;;;20.88;68.69;100015.09;110510;1260;21990;-77
2023/06/23 06:42:52;;;;;;;15.80;10.70;;;;;;;21.00;68.82;100013.71;110575;1261;23871;-77
2023/06/23 06:45:21;;;;;;;14.40;11.90;;;;;;;21.12;68.71;100014.65;110582;1260;21980;-81
2023/06/23 06:47:53;;;;;;;11.80;10.50;;;;;;;21.20;68.46;100013.61;110730;1256;21963;-85
2023/06/23 06:50:23;;;;;;;14.00;10.80;;;;;;;21.26;68.62;100021.39;111076;1245;21959;-84
2023/06/23 06:52:52;;;;;;;16.10;10.60;;;;;;;21.34;68.61;100024.75;110816;1256;24311;-79
2023/06/23 06:55:21;;;;;;;10.90;9.80;;;;;;;21.42;68.50;100020.48;111065;1255;21967;-81
2023/06/23 06:57:49;;;;;;;12.30;10.30;;;;;;;21.52;68.56;100024.77;110647;1260;24385;-78
2023/06/23 07:00:20;;;;;;;11.80;10.70;;;;;;;21.61;68.39;100030.84;110777;1260;21953;-80
2023/06/23 07:02:49;;;;;;;14.80;11.70;;;;;;;21.70;68.17;100035.58;110495;1260;22054;-79
2023/06/23 07:05:17;;;;;;;14.00;11.90;;;;;;;21.76;68.09;100046.15;110633;1260;21972;-80
2023/06/23 07:07:46;;;;;;;13.30;11.40;;;;;;;21.76;67.78;100044.73;110055;1265;23793;-79
2023/06/23 07:10:15;;;;;;;15.90;11.70;;;;;;;21.70;67.53;100041.92;110127;1265;21969;-79
2023/06/23 07:12:43;;;;;;;18.00;11.40;;;;;;;21.63;67.78;100037.59;109524;1270;23614;-81
2023/06/23 07:15:14;;;;;;;15.60;13.90;;;;;;;21.64;68.27;100040.02;109510;1269;23887;-80
2023/06/23 07:17:43;;;;;;;13.70;11.40;;;;;;;21.70;68.50;100044.46;109693;1263;23004;-80
2023/06/23 07:20:18;;;;;;;12.50;11.30;;;;;;;21.76;68.51;100045.48;109808;1268;23675;-79
2023/06/23 07:22:54;;;;;;;14.50;12.00;;;;;;;21.82;68.68;100047.59;109845;1265;22822;-79
2023/06/23 07:25:23;;;;;;;12.80;11.40;;;;;;;21.89;68.71;100044.11;110120;1261;23694;-80
2023/06/23 07:27:57;;;;;;;15.10;13.30;;;;;;;21.94;68.60;100043.11;110592;1261;21980;-81
2023/06/23 07:30:40;;;;;;;13.30;12.00;;;;;;;21.97;68.52;100041.64;110543;1255;24334;-80
2023/06/23 07:36:29;;;;;;;18.50;16.50;;;;;;;22.03;68.75;100050.66;110594;1261;24286;-81
2023/06/23 07:39:23;;;;;;;15.70;12.30;;;;;;;22.12;68.76;100060.48;110518;1261;23628;-82
2023/06/23 07:41:52;;;;;;;15.20;12.90;;;;;;;22.17;68.92;100068.67;110246;1265;21982;-81
2023/06/23 07:44:34;;;;;;;14.30;12.60;;;;;;;22.26;68.68;100077.30;110384;1265;21961;-80
2023/06/23 07:47:13;;;;;;;31.10;15.60;;;;;;;22.28;68.60;100082.61;109990;1266;22001;-78
2023/06/23 07:49:44;;;;;;;;;;;;;;;22.36;68.85;100083.84;110284;1265;21965;-80
2023/06/23 07:52:24;;;;;;;16.80;14.30;;;;;;;22.39;69.21;100073.82;109479;1270;22283;-84
2023/06/23 07:54:56;;;;;;;16.30;14.80;;;;;;;22.50;68.95;100080.48;109530;1270;21977;-78
2023/06/23 07:57:25;;;;;;;23.20;14.30;;;;;;;22.53;68.31;100083.55;109534;1270;22990;-77
2023/06/23 08:00:40;;;;;;;16.70;15.00;;;;;;;22.58;68.49;100081.11;109796;1266;22442;-85
2023/06/23 08:03:39;;;;;;;16.60;14.90;;;;;;;22.66;68.48;100079.17;109537;1271;22967;-85
2023/06/23 08:06:37;;;;;;;15.60;14.30;;;;;;;22.80;68.42;100086.00;109528;1270;22245;-82
2023/06/23 08:09:26;;;;;;;15.80;14.50;;;;;;;22.84;67.92;100071.99;109030;1273;22009;-85
2023/06/23 08:12:07;;;;;;;16.30;14.80;;;;;;;22.92;67.38;100069.77;108966;1279;23623;-82
2023/06/23 08:14:50;;;;;;;16.50;15.00;;;;;;;23.04;67.06;100074.20;109041;1270;23043;-82
2023/06/23 08:22:40;;;;;;;16.40;14.90;;;;;;;23.16;66.53;100072.36;109336;1274;23105;-81
2023/06/23 08:28:38;;;;;;;18.10;16.50;;;;;;;23.31;65.41;100089.63;109064;1274;21973;-83
2023/06/23 08:32:18;;;;;;;18.40;16.50;;;;;;;23.17;65.23;100090.73;109123;1274;23043;-82
2023/06/23 08:35:55;;;;;;;17.00;15.50;;;;;;;23.25;65.99;100097.79;109144;1274;22030;-81
2023/06/23 08:39:40;;;;;;;;;;;;;;;;;;;;;
2023/06/23 08:43:29;;;;;;;;;;;;;;;;;;;;;
2023/06/23 08:46:53;;;;;;;21.00;15.60;;;;;;;23.54;65.04;100087.70;109146;1272;23046;-82
2023/06/23 08:50:00;;;;;;;;;;;;;;;;;;;;;
2023/06/23 08:53:23;;;;;;;14.20;13.00;;;;;;;23.79;64.34;100098.78;109489;1272;22019;-82
2023/06/23 08:57:22;;;;;;;15.20;13.60;;;;;;;23.81;64.22;100100.24;108884;1277;22093;-82
2023/06/23 09:00:58;;;;;;;14.60;12.90;;;;;;;23.94;64.40;100094.72;108902;1270;23631;-82
2023/06/23 09:03:52;;;;;;;15.60;12.30;;;;;;;24.01;63.77;100089.63;109044;1273;21997;-83
2023/06/23 09:07:50;;;;;;;;;;;;;;;;;;;;;
2023/06/23 09:11:21;;;;;;;11.40;10.20;;;;;;;23.90;62.82;100098.63;109955;1267;21997;-84
2023/06/23 09:14:40;;;;;;;11.90;9.80;;;;;;;23.80;63.30;100094.13;110286;1267;22663;-83
2023/06/23 09:18:06;;;;;;;11.60;10.50;;;;;;;23.83;63.65;100097.23;110547;1265;22051;-81
2023/06/23 09:21:43;;;;;;;14.00;9.10;;;;;;;23.79;63.65;100096.18;110709;1258;21970;-83
2023/06/23 09:26:33;;;;;;;10.20;8.40;;;;;;;23.74;63.47;100114.23;110604;1262;21988;-83
2023/06/23 09:30:25;;;;;;;;;;;;;;;;;;;;;
2023/06/23 09:34:19;;;;;;;9.60;7.50;;;;;;;23.61;63.63;100131.27;110326;1266;23685;-84
2023/06/23 09:38:29;;;;;;;;;;;;;;;;;;;;;
2023/06/23 09:42:05;;;;;;;;;;;;;;;;;;;;;
2023/06/23 09:49:28;;;;;;;10.20;7.10;;;;;;;23.77;62.50;100143.02;108643;1281;22070;-83
2023/06/23 09:52:54;;;;;;;;;;;;;;;;;;;;;
2023/06/23 09:55:47;;;;;;;9.80;6.60;;;;;;;23.90;62.95;100149.81;109033;1277;22004;-84
2023/06/23 09:58:49;;;;;;;9.70;7.90;;;;;;;24.11;62.41;100151.79;109018;1267;23827;-84
2023/06/23 10:01:25;;;;;;;10.00;7.30;;;;;;;24.28;61.57;100153.39;108993;1277;22755;-81
2023/06/23 10:04:45;;;;;;;10.60;7.70;;;;;;;24.41;60.81;100158.68;109286;1273;21993;-83
2023/06/23 10:07:40;;;;;;;9.00;8.10;;;;;;;24.47;60.03;100156.64;109615;1267;23191;-82
2023/06/23 10:10:45;;;;;;;11.40;8.30;;;;;;;24.57;60.10;100153.27;110331;1263;23721;-82
2023/06/23 10:13:17;;;;;;;7.80;7.00;;;;;;;24.75;59.90;100157.73;110202;1263;23723;-82
2023/06/23 10:15:51;;;;;;;9.30;8.00;;;;;;;24.88;59.12;100155.49;110204;1260;21981;-83
2023/06/23 10:18:31;;;;;;;8.50;7.60;;;;;;;25.01;58.72;100151.63;110619;1260;21971;-83
2023/06/23 10:21:08;;;;;;;9.70;8.10;;;;;;;25.15;58.28;100149.33;110611;1257;23625;-81
2023/06/23 10:24:41;;;;;;;11.20;8.30;;;;;;;25.27;57.90;100153.98;110446;1265;23039;-80
2023/06/23 10:28:17;;;;;;;10.80;8.60;;;;;;;25.28;57.45;100157.81;109610;1272;22009;-79
2023/06/23 10:35:13;;;;;;;14.80;8.20;;;;;;;25.36;57.19;100165.19;108638;1282;23014;-81
2023/06/23 10:43:23;;;;;;;7.60;7.00;;;;;;;25.21;56.77;100182.05;108721;1281;22842;-81
2023/06/23 10:50:01;;;;;;;10.00;9.10;;;;;;;25.31;57.11;100194.41;107643;1294;22000;-79
2023/06/23 10:53:39;;;;;;;;;;;;;;;;;;;;;
2023/06/23 10:56:40;;;;;;;;;;;;;;;;;;;;;
2023/06/23 10:59:56;;;;;;;12.20;10.80;;;;;;;25.02;56.48;100213.14;107827;1291;22021;-81
2023/06/23 11:03:35;;;;;;;11.60;9.50;;;;;;;24.96;56.77;100217.16;108296;1285;23669;-80
2023/06/23 11:06:49;;;;;;;17.10;10.80;;;;;;;24.86;57.01;100231.77;108787;1279;22620;-80
2023/06/23 11:10:20;;;;;;;10.70;9.70;;;;;;;24.78;57.08;100230.56;108525;1283;22006;-79
2023/06/23 11:13:51;;;;;;;11.80;9.80;;;;;;;24.68;57.41;100230.27;108217;1288;22078;-80
2023/06/23 11:16:55;;;;;;;15.30;9.70;;;;;;;24.64;57.54;100232.27;108003;1291;22010;-80
2023/06/23 11:19:37;;;;;;;11.20;9.50;;;;;;;24.58;57.40;100233.14;107975;1286;21956;-80
2023/06/23 11:30:40;;;;;;;12.80;10.90;;;;;;;24.67;57.59;100239.56;108077;1286;23811;-79
2023/06/23 11:34:48;;;;;;;12.20;9.20;;;;;;;24.73;57.20;100228.79;108338;1287;22005;-81
2023/06/23 11:37:26;;;;;;;14.90;11.40;;;;;;;24.77;56.91;100210.86;108239;1283;22292;-81
2023/06/23 11:40:28;;;;;;;;;;;;;;;;;;;;;
2023/06/23 11:43:19;;;;;;;16.10;11.10;;;;;;;25.08;56.27;100220.34;107846;1291;22389;-81
2023/06/23 11:47:11;;;;;;;12.50;11.10;;;;;;;25.16;55.76;100222.73;107627;1291;22031;-80
2023/06/23 11:50:35;;;;;;;12.60;11.50;;;;;;;25.19;55.60;100218.35;107892;1291;22947;-81
2023/06/23 11:53:49;;;;;;;15.30;12.00;;;;;;;25.20;55.34;100219.73;107954;1283;22020;-82
2023/06/23 11:57:38;;;;;;;12.10;11.00;;;;;;;25.22;55.43;100219.52;108178;1288;22004;-80
2023/06/23 12:00:35;;;;;;;15.60;13.10;;;;;;;25.29;55.19;100226.86;108400;1282;23836;-79
2023/06/23 12:03:22;;;;;;;14.50;10.60;;;;;;;25.34;54.74;100225.13;108765;1272;22006;-80
2023/06/23 12:06:04;;;;;;;14.80;10.90;;;;;;;25.37;54.54;100224.11;109704;1267;23072;-79
2023/06/23 12:08:37;;;;;;;12.00;10.80;;;;;;;25.45;54.84;100231.10;109732;1266;21980;-80
2023/06/23 12:11:16;;;;;;;19.00;12.90;;;;;;;25.55;54.64;100229.99;109705;1267;22254;-81
2023/06/23 12:13:51;;;;;;;15.90;14.40;;;;;;;25.61;54.20;100235.34;109873;1267;23039;-82
2023/06/23 12:16:20;;;;;;;16.10;14.40;;;;;;;25.62;53.77;100241.42;110091;1257;23042;-81
2023/06/23 12:18:53;;;;;;;15.40;13.90;;;;;;;25.59;53.31;100245.68;109113;1273;22030;-83
2023/06/23 12:21:35;;;;;;;15.50;13.90;;;;;;;25.50;53.23;100236.75;109529;1271;21955;-83
2023/06/23 12:24:44;;;;;;;18.20;14.80;;;;;;;25.39;53.78;100225.33;109687;1270;23070;-84
2023/06/23 12:28:19;;;;;;;23.50;15.40;;;;;;;25.43;54.05;100227.15;109692;1269;23721;-82
2023/06/23 12:31:39;;;;;;;;;;;;;;;;;;;;;
2023/06/23 12:34:53;;;;;;;16.70;15.00;;;;;;;25.45;53.77;100236.04;109558;1271;21967;-82
2023/06/23 12:38:18;;;;;;;16.20;14.70;;;;;;;25.48;54.26;100228.29;109644;1270;23146;-82
2023/06/23 12:41:40;;;;;;;17.40;13.70;;;;;;;25.67;53.92;100239.09;109498;1267;21964;-81
2023/06/23 12:44:33;;;;;;;19.00;13.70;;;;;;;25.75;53.68;100239.90;110569;1262;22171;-81
2023/06/23 12:48:24;;;;;;;17.40;15.30;;;;;;;25.83;53.61;100238.56;109822;1269;21976;-83
2023/06/23 12:51:08;;;;;;;16.50;15.00;;;;;;;25.96;53.08;100239.58;109505;1269;24374;-83
2023/06/23 12:53:58;;;;;;;16.40;14.70;;;;;;;26.04;52.69;100239.71;109084;1274;21987;-82
2023/06/23 12:56:36;;;;;;;15.50;12.40;;;;;;;26.13;52.49;100236.30;109172;1273;23055;-83
2023/06/23 12:59:10;;;;;;;15.80;14.20;;;;;;;26.16;51.89;100236.02;109268;1264;22013;-82
2023/06/23 13:06:32;;;;;;;;;;;;;;;;;;;;;
2023/06/23 13:10:58;;;;;;;;;;;;;;;;;;;;;
2023/06/23 13:14:44;;;;;;;15.70;14.00;;;;;;;25.77;52.59;100227.23;108188;1289;22658;-79
2023/06/23 13:18:42;;;;;;;;;;;;;;;;;;;;;
2023/06/23 13:22:41;;;;;;;16.00;13.70;;;;;;;25.74;53.19;100220.23;108467;1284;21997;-78
2023/06/23 13:25:01;;;;;;;;;;;;;;;;;;;;;
2023/06/23 13:28:07;;;;;;;21.50;14.70;;;;;;;25.81;52.70;100227.02;108451;1285;22381;-78
2023/06/23 13:31:31;;;;;;;;;;;;;;;;;;;;;
2023/06/23 13:39:30;;;;;;;;;;;;;;;;;;;;;
2023/06/23 13:44:09;;;;;;;;;;;;;;;;;;;;;
2023/06/23 13:47:49;;;;;;;13.50;11.10;;;;;;;25.80;52.26;100246.56;109053;1280;22006;-79
2023/06/23 13:50:58;;;;;;;14.20;11.80;;;;;;;25.98;52.06;100255.77;108872;1281;21997;-80
2023/06/23 13:54:33;;;;;;;12.10;10.90;;;;;;;26.08;51.27;100260.70;108853;1280;22008;-81
2023/06/23 13:57:45;;;;;;;12.90;11.30;;;;;;;26.16;50.99;100263.03;108856;1280;22015;-79
2023/06/23 14:00:45;;;;;;;14.40;13.00;;;;;;;26.22;51.15;100258.55;109095;1275;22000;-80
2023/06/23 14:04:08;;;;;;;13.60;12.20;;;;;;;26.36;50.77;100247.45;109317;1275;21986;-79
2023/06/23 14:07:14;;;;;;;;;;;;;;;;;;;;;
2023/06/23 14:10:23;;;;;;;14.30;12.20;;;;;;;26.50;50.12;100253.71;109537;1274;23795;-81
2023/06/23 14:13:31;;;;;;;13.30;11.90;;;;;;;26.57;49.66;100255.61;109324;1270;23729;-80
2023/06/23 14:16:40;;;;;;;13.40;12.20;;;;;;;26.64;49.25;100257.52;109145;1275;21994;-80
2023/06/23 14:19:43;;;;;;;;;;;;;;;26.68;49.20;100256.04;110340;1262;21959;-80
2023/06/23 14:22:41;;;;;;;12.70;11.60;;;;;;;26.65;49.24;100258.86;110916;1261;21990;-80
2023/06/23 14:25:55;;;;;;;13.00;11.70;;;;;;;26.67;49.26;100248.81;110948;1255;22001;-82
2023/06/23 14:28:54;;;;;;;13.40;12.30;;;;;;;26.71;49.63;100245.98;111698;1255;23017;-80
2023/06/23 14:32:36;;;;;;;;;;;;;;;;;;;;;